createdAt,value
2019-03-27T00:01:10.617Z,5.67
2019-03-27T00:03:44.487Z,5.40
2019-03-27T00:06:15.599Z,4.73
2019-03-27T00:08:45.860Z,4.70
2019-03-27T00:11:17.123Z,5.80
2019-03-27T00:13:51.409Z,4.90
2019-03-27T00:16:24.647Z,4.97
2019-03-27T00:18:57.209Z,5.90
2019-03-27T00:21:29.064Z,4.93
2019-03-27T00:24:02.082Z,4.90
2019-03-27T00:26:33.861Z,4.97
2019-03-27T00:29:05.751Z,4.97
2019-03-27T00:31:38.853Z,5.37
2019-03-27T00:34:12.054Z,5.57
2019-03-27T00:36:43.923Z,5.53
2019-03-27T00:39:15.550Z,4.90
2019-03-27T00:41:45.680Z,5.03
2019-03-27T00:44:15.737Z,5.33
2019-03-27T00:46:48.290Z,5.60
2019-03-27T00:49:20.640Z,4.90
2019-03-27T00:51:53.228Z,4.53
2019-03-27T00:54:29.483Z,5.07
2019-03-27T00:56:56.642Z,5.10
2019-03-27T00:59:28.972Z,5.30
2019-03-27T01:02:01.249Z,5.37
2019-03-27T01:04:34.814Z,5.10
2019-03-27T01:07:05.055Z,4.93
2019-03-27T01:09:44.797Z,5.10
2019-03-27T01:12:14.884Z,4.80
2019-03-27T01:14:45.123Z,5.30
2019-03-27T01:17:19.673Z,4.43
2019-03-27T01:19:50.020Z,5.60
2019-03-27T01:22:20.154Z,5.00
2019-03-27T01:24:57.314Z,5.60
2019-03-27T01:27:31.417Z,5.07
2019-03-27T01:30:01.706Z,5.23
2019-03-27T01:32:35.586Z,5.10
2019-03-27T01:35:06.173Z,5.53
2019-03-27T01:37:37.549Z,4.97
2019-03-27T01:40:10.362Z,5.77
2019-03-27T01:42:40.235Z,4.83
2019-03-27T01:45:11.303Z,4.93
2019-03-27T01:47:43.513Z,4.97
2019-03-27T01:50:13.586Z,4.80
2019-03-27T01:52:45.814Z,5.30
2019-03-27T01:55:17.571Z,5.07
2019-03-27T01:57:47.795Z,5.40
2019-03-27T02:00:18.254Z,5.53
2019-03-27T02:02:52.765Z,5.60
2019-03-27T02:05:24.255Z,5.40
2019-03-27T02:07:54.228Z,5.83
2019-03-27T02:10:27.934Z,5.23
2019-03-27T02:12:59.466Z,5.00
2019-03-27T02:15:29.778Z,5.40
2019-03-27T02:17:59.890Z,5.27
2019-03-27T02:20:30.015Z,5.53
2019-03-27T02:23:00.218Z,5.47
2019-03-27T02:25:30.497Z,5.03
2019-03-27T02:28:00.696Z,5.80
2019-03-27T02:30:33.218Z,5.97
2019-03-27T02:33:03.240Z,5.90
2019-03-27T02:35:35.715Z,5.70
2019-03-27T02:38:05.845Z,5.37
2019-03-27T02:40:36.230Z,5.67
2019-03-27T02:43:06.363Z,5.60
2019-03-27T02:45:36.624Z,5.70
2019-03-27T02:48:06.720Z,5.47
2019-03-27T02:50:40.160Z,6.57
2019-03-27T02:53:10.289Z,5.70
2019-03-27T02:55:41.254Z,5.87
2019-03-27T02:58:15.241Z,5.67
2019-03-27T03:00:45.416Z,5.97
2019-03-27T03:03:15.625Z,5.83
2019-03-27T03:05:45.786Z,6.33
2019-03-27T03:08:18.021Z,5.57
2019-03-27T03:10:48.298Z,5.40
2019-03-27T03:13:18.635Z,6.17
2019-03-27T03:15:49.695Z,5.70
2019-03-27T03:18:19.750Z,5.53
2019-03-27T03:20:52.401Z,6.23
2019-03-27T03:23:22.722Z,6.07
2019-03-27T03:25:52.777Z,6.57
2019-03-27T03:28:22.754Z,5.93
2019-03-27T03:30:52.958Z,6.20
2019-03-27T03:33:25.985Z,6.27
2019-03-27T03:35:57.642Z,6.30
2019-03-27T03:38:30.155Z,6.13
2019-03-27T03:41:01.565Z,6.67
2019-03-27T03:43:31.757Z,5.47
2019-03-27T03:46:02.190Z,5.93
2019-03-27T03:48:34.262Z,5.83
2019-03-27T03:51:05.718Z,6.13
2019-03-27T03:53:39.034Z,5.90
2019-03-27T03:56:12.224Z,6.53
2019-03-27T03:58:43.306Z,5.97
2019-03-27T04:01:14.802Z,5.63
2019-03-27T04:03:49.570Z,6.20
2019-03-27T04:06:19.873Z,6.23
2019-03-27T04:08:53.140Z,6.43
2019-03-27T04:11:23.353Z,6.30
2019-03-27T04:13:56.113Z,6.87
2019-03-27T04:16:26.347Z,6.50
2019-03-27T04:18:58.134Z,6.47
2019-03-27T04:21:28.364Z,7.10
2019-03-27T04:23:58.461Z,6.73
2019-03-27T04:26:28.484Z,6.80
2019-03-27T04:28:59.811Z,6.43
2019-03-27T04:31:29.995Z,7.23
2019-03-27T04:34:00.043Z,7.10
2019-03-27T04:36:31.547Z,7.10
2019-03-27T04:39:01.689Z,7.40
2019-03-27T04:41:35.194Z,6.87
2019-03-27T04:44:08.793Z,7.17
2019-03-27T04:46:44.948Z,6.33
2019-03-27T04:49:11.739Z,7.17
2019-03-27T04:51:45.723Z,6.90
2019-03-27T04:54:15.772Z,7.50
2019-03-27T04:56:45.775Z,6.83
2019-03-27T04:59:20.911Z,7.47
2019-03-27T05:01:52.010Z,7.10
2019-03-27T05:04:24.498Z,7.23
2019-03-27T05:06:54.523Z,6.57
2019-03-27T05:09:24.714Z,6.37
2019-03-27T05:11:56.693Z,6.70
2019-03-27T05:14:26.907Z,6.40
2019-03-27T05:16:58.429Z,7.13
2019-03-27T05:19:28.627Z,6.93
2019-03-27T05:21:58.887Z,6.73
2019-03-27T05:24:30.142Z,7.10
2019-03-27T05:27:03.725Z,6.23
2019-03-27T05:29:33.882Z,6.73
2019-03-27T05:32:04.110Z,7.00
2019-03-27T05:34:34.256Z,6.60
2019-03-27T05:37:07.347Z,6.60
2019-03-27T05:39:37.547Z,7.63
2019-03-27T05:42:07.718Z,7.50
2019-03-27T05:44:39.193Z,7.10
2019-03-27T05:47:10.658Z,6.50
2019-03-27T05:49:40.588Z,6.47
2019-03-27T05:52:10.519Z,6.77
2019-03-27T05:54:40.715Z,7.10
2019-03-27T05:57:13.267Z,7.67
2019-03-27T05:59:46.698Z,6.93
2019-03-27T06:02:17.931Z,7.40
2019-03-27T06:04:49.612Z,7.93
2019-03-27T06:07:19.847Z,7.20
2019-03-27T06:09:53.925Z,7.43
2019-03-27T06:12:26.700Z,7.90
2019-03-27T06:14:56.843Z,7.47
2019-03-27T06:17:26.931Z,7.77
2019-03-27T06:19:58.863Z,7.20
2019-03-27T06:22:30.783Z,7.40
2019-03-27T06:25:04.236Z,7.67
2019-03-27T06:27:34.137Z,7.33
2019-03-27T06:30:06.595Z,7.80
2019-03-27T06:32:38.681Z,7.30
2019-03-27T06:35:09.409Z,6.93
2019-03-27T06:37:39.663Z,7.47
2019-03-27T06:40:10.136Z,6.70
2019-03-27T06:42:40.272Z,7.47
2019-03-27T06:45:10.882Z,6.63
2019-03-27T06:47:41.050Z,6.87
2019-03-27T06:50:16.023Z,7.60
2019-03-27T06:52:47.381Z,7.43
2019-03-27T06:55:20.912Z,6.20
2019-03-27T06:57:52.048Z,5.33
2019-03-27T07:00:30.815Z,6.40
2019-03-27T07:03:03.474Z,5.93
2019-03-27T07:05:42.596Z,5.40
2019-03-27T07:08:12.534Z,5.73
2019-03-27T07:10:42.787Z,5.47
2019-03-27T07:13:12.887Z,6.00
2019-03-27T07:15:44.709Z,5.87
2019-03-27T07:18:16.806Z,5.60
2019-03-27T07:20:46.873Z,4.80
2019-03-27T07:23:18.689Z,4.97
2019-03-27T07:25:52.996Z,5.63
2019-03-27T07:28:23.109Z,5.80
2019-03-27T07:30:54.351Z,5.53
2019-03-27T07:33:24.571Z,5.30
2019-03-27T07:35:57.467Z,5.43
2019-03-27T07:38:28.582Z,4.20
2019-03-27T07:41:00.017Z,4.00
2019-03-27T07:43:30.068Z,3.77
2019-03-27T07:46:00.153Z,3.60
2019-03-27T07:48:30.392Z,3.97
2019-03-27T07:51:02.138Z,3.97
2019-03-27T07:53:35.492Z,4.17
2019-03-27T07:56:09.774Z,5.20
2019-03-27T07:58:39.979Z,4.97
2019-03-27T08:01:10.180Z,4.17
2019-03-27T08:03:40.369Z,4.10
2019-03-27T08:06:10.457Z,4.23
2019-03-27T08:08:45.307Z,4.90
2019-03-27T08:11:18.713Z,4.07
2019-03-27T08:13:56.589Z,5.10
2019-03-27T08:16:28.825Z,5.87
2019-03-27T08:19:07.854Z,3.83
2019-03-27T08:21:34.959Z,4.20
2019-03-27T08:24:07.157Z,4.13
2019-03-27T08:26:42.653Z,3.87
2019-03-27T08:29:12.795Z,4.07
2019-03-27T08:31:47.570Z,3.83
2019-03-27T08:34:17.724Z,3.57
2019-03-27T08:36:50.191Z,4.63
2019-03-27T08:39:22.583Z,3.50
2019-03-27T08:41:52.838Z,4.87
2019-03-27T08:44:23.018Z,4.73
2019-03-27T08:46:55.444Z,4.40
2019-03-27T08:49:27.491Z,4.77
2019-03-27T08:51:59.608Z,4.17
2019-03-27T08:54:29.761Z,4.17
2019-03-27T08:57:00.002Z,3.73
2019-03-27T08:59:30.117Z,3.83
2019-03-27T09:02:00.313Z,3.50
2019-03-27T09:04:33.424Z,3.50
2019-03-27T09:07:05.969Z,3.50
2019-03-27T09:09:40.381Z,4.20
2019-03-27T09:12:10.634Z,4.03
2019-03-27T09:14:40.683Z,4.07
2019-03-27T09:17:13.122Z,4.40
2019-03-27T09:19:43.363Z,5.23
2019-03-27T09:22:19.476Z,4.63
2019-03-27T09:24:51.881Z,4.83
2019-03-27T09:30:15.166Z,5.40
2019-03-27T09:32:46.470Z,3.83
2019-03-27T09:35:16.881Z,4.07
2019-03-27T09:37:48.947Z,4.47
2019-03-27T09:40:21.466Z,5.83
2019-03-27T09:42:53.329Z,6.13
2019-03-27T09:45:27.383Z,5.00
2019-03-27T09:47:57.630Z,4.90
2019-03-27T09:50:30.059Z,4.27
2019-03-27T09:53:00.317Z,3.30
2019-03-27T09:55:30.540Z,3.73
2019-03-27T09:58:04.324Z,4.30
2019-03-27T10:00:57.128Z,3.97
2019-03-27T10:03:29.799Z,3.57
2019-03-27T10:06:01.490Z,3.90
2019-03-27T10:08:33.219Z,4.00
2019-03-27T10:11:06.511Z,4.70
2019-03-27T10:13:36.802Z,3.03
2019-03-27T10:16:07.201Z,3.90
2019-03-27T10:18:37.378Z,4.93
2019-03-27T10:21:09.966Z,8.17
2019-03-27T10:23:40.077Z,3.83
2019-03-27T10:26:12.161Z,7.57
2019-03-27T10:28:44.135Z,4.30
2019-03-27T10:31:16.455Z,4.60
2019-03-27T10:33:52.024Z,3.70
2019-03-27T10:36:22.036Z,7.73
2019-03-27T10:38:52.140Z,3.10
2019-03-27T10:41:26.509Z,3.53
2019-03-27T10:43:54.052Z,2.80
2019-03-27T10:46:24.243Z,2.80
2019-03-27T10:48:54.421Z,4.67
2019-03-27T10:51:24.809Z,3.27
2019-03-27T10:53:55.013Z,3.67
2019-03-27T10:56:25.167Z,4.03
2019-03-27T10:58:55.382Z,4.37
2019-03-27T11:01:25.415Z,3.00
2019-03-27T11:03:55.586Z,2.90
2019-03-27T11:06:25.749Z,3.33
2019-03-27T11:08:57.315Z,3.57
2019-03-27T11:11:27.429Z,4.30
2019-03-27T11:13:57.629Z,3.10
2019-03-27T11:16:27.983Z,4.27
2019-03-27T11:18:58.061Z,5.07
2019-03-27T11:21:28.199Z,4.20
2019-03-27T11:23:58.497Z,3.57
2019-03-27T11:26:30.843Z,4.10
2019-03-27T11:29:01.002Z,4.37
2019-03-27T11:31:32.491Z,4.50
2019-03-27T11:34:03.911Z,4.20
2019-03-27T11:36:35.303Z,3.93
2019-03-27T11:39:08.545Z,4.53
2019-03-27T11:41:38.769Z,4.60
2019-03-27T11:44:12.668Z,3.90
2019-03-27T11:46:44.193Z,7.67
2019-03-27T11:49:14.386Z,4.30
2019-03-27T11:51:44.582Z,4.00
2019-03-27T11:54:14.674Z,5.77
2019-03-27T11:56:44.749Z,4.20
2019-03-27T11:59:14.938Z,5.37
2019-03-27T12:01:47.319Z,5.20
2019-03-27T12:04:17.560Z,4.13
2019-03-27T12:06:49.680Z,4.43
2019-03-27T12:09:19.785Z,5.37
2019-03-27T12:11:51.411Z,5.00
2019-03-27T12:14:22.504Z,4.67
2019-03-27T12:16:54.176Z,4.20
2019-03-27T12:19:25.628Z,4.03
2019-03-27T12:21:59.767Z,4.00
2019-03-27T12:24:31.210Z,4.13
2019-03-27T12:27:01.342Z,4.23
2019-03-27T12:29:32.920Z,4.70
2019-03-27T12:32:06.379Z,4.93
2019-03-27T12:34:38.549Z,5.60
2019-03-27T12:37:08.665Z,4.20
2019-03-27T12:39:40.755Z,3.90
2019-03-27T12:42:10.742Z,4.00
2019-03-27T12:44:40.793Z,4.50
2019-03-27T12:47:11.029Z,4.73
2019-03-27T12:49:42.434Z,3.60
2019-03-27T12:52:12.821Z,4.00
2019-03-27T12:54:44.007Z,3.97
2019-03-27T12:57:14.013Z,4.57
2019-03-27T12:59:44.052Z,4.40
2019-03-27T13:02:14.378Z,5.23
2019-03-27T13:04:44.376Z,4.67
2019-03-27T13:07:16.207Z,4.30
2019-03-27T13:09:48.439Z,4.40
2019-03-27T13:12:18.627Z,3.87
2019-03-27T13:14:48.805Z,4.47
2019-03-27T13:17:23.451Z,4.60
2019-03-27T13:19:54.960Z,4.17
2019-03-27T13:22:24.998Z,4.37
2019-03-27T13:24:55.278Z,4.60
2019-03-27T13:27:25.502Z,4.53
2019-03-27T13:29:55.665Z,5.30
2019-03-27T13:32:25.733Z,4.53
2019-03-27T13:34:57.340Z,3.90
2019-03-27T13:37:28.850Z,4.17
2019-03-27T13:40:03.342Z,4.13
2019-03-27T13:42:36.416Z,3.90
2019-03-27T13:45:07.603Z,3.93
2019-03-27T13:47:39.670Z,4.57
2019-03-27T13:50:13.296Z,4.00
2019-03-27T13:52:46.426Z,4.17
2019-03-27T13:55:20.275Z,4.07
2019-03-27T13:57:52.076Z,4.67
2019-03-27T14:00:26.597Z,5.57
2019-03-27T14:02:58.254Z,4.93
2019-03-27T14:05:28.584Z,4.60
2019-03-27T14:08:01.015Z,5.23
2019-03-27T14:10:39.937Z,4.13
2019-03-27T14:13:10.151Z,4.87
2019-03-27T14:15:41.717Z,4.23
2019-03-27T14:18:14.784Z,3.90
2019-03-27T14:20:44.809Z,4.93
2019-03-27T14:23:16.421Z,4.60
2019-03-27T14:25:48.916Z,4.10
2019-03-27T14:28:20.318Z,3.87
2019-03-27T14:30:58.061Z,4.63
2019-03-27T14:33:31.815Z,5.47
2019-03-27T14:36:05.717Z,6.57
2019-03-27T14:38:35.966Z,9.83
2019-03-27T14:41:08.848Z,5.73
2019-03-27T14:43:40.049Z,4.97
2019-03-27T14:46:11.509Z,4.33
2019-03-27T14:48:43.239Z,3.93
2019-03-27T14:51:17.299Z,4.70
2019-03-27T14:53:51.102Z,4.77
2019-03-27T14:56:21.278Z,4.10
2019-03-27T14:58:51.348Z,4.70
2019-03-27T15:01:21.572Z,7.73
2019-03-27T15:03:51.659Z,7.73
2019-03-27T15:06:21.863Z,4.90
2019-03-27T15:08:52.472Z,4.77
2019-03-27T15:11:23.717Z,5.97
2019-03-27T15:13:53.960Z,17.10
2019-03-27T15:16:24.035Z,5.50
2019-03-27T15:18:54.020Z,4.23
2019-03-27T15:21:26.393Z,8.97
2019-03-27T15:24:04.173Z,8.87
2019-03-27T15:26:38.638Z,7.07
2019-03-27T15:29:12.538Z,5.00
2019-03-27T15:31:42.507Z,4.30
2019-03-27T15:34:12.631Z,6.73
2019-03-27T15:36:44.028Z,6.70
2019-03-27T15:39:14.219Z,6.80
2019-03-27T15:41:44.277Z,6.20
2019-03-27T15:44:14.408Z,5.90
2019-03-27T15:46:44.517Z,6.27
2019-03-27T15:49:14.574Z,8.47
2019-03-27T15:51:44.887Z,6.07
2019-03-27T15:54:14.975Z,17.53
2019-03-27T15:56:45.208Z,16.87
2019-03-27T15:59:18.505Z,9.77
2019-03-27T16:01:48.740Z,16.00
2019-03-27T16:04:20.405Z,16.53
2019-03-27T16:06:50.654Z,6.67
2019-03-27T16:09:22.162Z,16.93
2019-03-27T16:11:54.214Z,7.93
2019-03-27T16:14:25.512Z,9.23
2019-03-27T16:17:12.349Z,7.80
2019-03-27T16:19:30.094Z,5.23
2019-03-27T16:22:03.529Z,8.50
2019-03-27T16:24:39.167Z,27.63
2019-03-27T16:27:14.752Z,7.20
2019-03-27T16:29:44.956Z,5.93
2019-03-27T16:32:15.017Z,4.90
2019-03-27T16:34:45.053Z,5.50
2019-03-27T16:37:17.175Z,5.20
2019-03-27T16:39:47.405Z,4.77
2019-03-27T16:42:18.813Z,4.40
2019-03-27T16:44:50.663Z,5.00
2019-03-27T16:47:24.553Z,4.40
2019-03-27T16:49:54.610Z,5.13
2019-03-27T16:52:24.792Z,5.27
2019-03-27T16:54:55.100Z,5.40
2019-03-27T16:57:26.390Z,6.10
2019-03-27T16:59:56.534Z,5.17
2019-03-27T17:02:26.574Z,5.40
2019-03-27T17:04:56.531Z,5.50
2019-03-27T17:07:31.238Z,4.83
2019-03-27T17:10:01.348Z,5.20
2019-03-27T17:12:33.721Z,5.33
2019-03-27T17:15:04.357Z,4.97
2019-03-27T17:17:36.181Z,6.30
2019-03-27T17:20:07.478Z,5.90
2019-03-27T17:22:37.600Z,6.37
2019-03-27T17:25:07.750Z,6.13
2019-03-27T17:27:37.768Z,5.93
2019-03-27T17:30:08.572Z,14.90
2019-03-27T17:32:38.699Z,8.57
2019-03-27T17:35:10.435Z,7.40
2019-03-27T17:37:40.653Z,6.53
2019-03-27T17:40:11.235Z,6.63
2019-03-27T17:42:41.594Z,6.70
2019-03-27T17:45:12.047Z,6.53
2019-03-27T17:47:42.322Z,7.53
2019-03-27T17:50:17.028Z,7.57
2019-03-27T17:52:47.265Z,7.13
2019-03-27T17:55:18.699Z,7.50
2019-03-27T17:57:48.940Z,7.13
2019-03-27T18:00:26.434Z,7.77
2019-03-27T18:02:56.534Z,6.23
2019-03-27T18:05:27.153Z,7.43
2019-03-27T18:07:59.655Z,6.90
2019-03-27T18:10:29.990Z,6.57
2019-03-27T18:13:00.222Z,7.37
2019-03-27T18:15:32.858Z,6.90
2019-03-27T18:18:03.119Z,7.47
2019-03-27T18:20:33.295Z,7.83
2019-03-27T18:23:03.622Z,7.73
2019-03-27T18:25:33.856Z,7.93
2019-03-27T18:28:06.799Z,8.57
2019-03-27T18:30:37.018Z,6.93
2019-03-27T18:33:07.351Z,7.03
2019-03-27T18:35:37.385Z,6.77
2019-03-27T18:38:08.446Z,5.73
2019-03-27T18:40:41.099Z,5.97
2019-03-27T18:43:11.240Z,5.50
2019-03-27T18:45:41.510Z,8.67
2019-03-27T18:48:11.757Z,6.47
2019-03-27T18:50:42.853Z,6.17
2019-03-27T18:53:13.151Z,6.53
2019-03-27T18:55:52.027Z,6.50
2019-03-27T18:58:22.074Z,6.37
2019-03-27T19:00:52.230Z,6.83
2019-03-27T19:03:22.504Z,5.90
2019-03-27T19:05:52.735Z,5.97
2019-03-27T19:08:22.936Z,6.50
2019-03-27T19:10:53.254Z,6.60
2019-03-27T19:13:23.374Z,6.57
2019-03-27T19:15:53.975Z,6.57
2019-03-27T19:18:24.273Z,6.60
2019-03-27T19:20:54.428Z,6.23
2019-03-27T19:23:24.510Z,6.50
2019-03-27T19:25:54.793Z,6.67
2019-03-27T19:28:27.917Z,6.17
2019-03-27T19:30:58.084Z,7.30
2019-03-27T19:33:28.084Z,6.33
2019-03-27T19:35:58.254Z,6.90
2019-03-27T19:38:28.605Z,8.93
2019-03-27T19:41:00.200Z,8.83
2019-03-27T19:43:30.309Z,8.70
2019-03-27T19:46:05.734Z,9.13
2019-03-27T19:48:37.229Z,8.97
2019-03-27T19:51:07.674Z,8.60
2019-03-27T19:53:37.860Z,10.30
2019-03-27T19:56:08.063Z,7.73
2019-03-27T19:58:38.253Z,8.47
2019-03-27T20:01:09.090Z,9.90
2019-03-27T20:03:40.532Z,8.93
2019-03-27T20:06:12.364Z,8.63
2019-03-27T20:08:45.131Z,8.30
2019-03-27T20:11:16.948Z,8.87
2019-03-27T20:13:48.638Z,8.50
2019-03-27T20:16:21.763Z,8.27
2019-03-27T20:18:51.903Z,9.47
2019-03-27T20:21:24.328Z,8.67
2019-03-27T20:24:00.165Z,9.93
2019-03-27T20:26:30.431Z,10.10
2019-03-27T20:29:00.746Z,9.97
2019-03-27T20:31:30.941Z,10.53
2019-03-27T20:34:04.370Z,11.20
2019-03-27T20:36:36.303Z,13.27
2019-03-27T20:39:10.417Z,16.30
2019-03-27T20:41:40.545Z,17.77
2019-03-27T20:44:10.688Z,16.97
2019-03-27T20:46:40.761Z,16.30
2019-03-27T20:49:10.871Z,12.83
2019-03-27T20:51:41.427Z,13.20
2019-03-27T20:54:11.599Z,13.13
2019-03-27T20:56:41.879Z,12.00
2019-03-27T20:59:12.206Z,12.17
2019-03-27T21:01:42.379Z,11.93
2019-03-27T21:04:15.945Z,10.83
2019-03-27T21:06:46.395Z,10.23
2019-03-27T21:09:16.489Z,10.03
2019-03-27T21:11:46.705Z,8.63
2019-03-27T21:14:16.954Z,10.70
2019-03-27T21:16:47.246Z,9.60
2019-03-27T21:19:17.402Z,9.33
2019-03-27T21:21:49.592Z,9.77
2019-03-27T21:24:19.885Z,9.03
2019-03-27T21:26:51.810Z,9.43
2019-03-27T21:29:24.382Z,10.03
2019-03-27T21:31:55.971Z,9.80
2019-03-27T21:34:27.595Z,10.23
2019-03-27T21:37:01.554Z,8.90
2019-03-27T21:39:35.721Z,9.40
2019-03-27T21:42:05.874Z,9.03
2019-03-27T21:44:36.102Z,9.20
2019-03-27T21:47:09.193Z,10.07
2019-03-27T21:49:39.306Z,8.77
2019-03-27T21:52:09.581Z,8.47
2019-03-27T21:54:39.839Z,7.77
2019-03-27T21:57:17.328Z,8.37
2019-03-27T21:59:48.988Z,8.40
2019-03-27T22:02:22.042Z,7.57
2019-03-27T22:04:52.089Z,7.60
2019-03-27T22:07:22.189Z,7.47
2019-03-27T22:09:53.942Z,7.37
2019-03-27T22:12:24.144Z,7.37
2019-03-27T22:14:54.319Z,7.83
2019-03-27T22:17:24.688Z,8.07
2019-03-27T22:19:55.101Z,7.90
2019-03-27T22:22:28.754Z,7.40
2019-03-27T22:25:00.364Z,8.20
2019-03-27T22:27:30.732Z,8.37
2019-03-27T22:30:00.984Z,8.23
2019-03-27T22:32:33.062Z,8.17
2019-03-27T22:35:03.419Z,7.40
2019-03-27T22:37:37.195Z,8.63
2019-03-27T22:40:07.554Z,7.63
2019-03-27T22:42:39.854Z,8.20
2019-03-27T22:45:10.089Z,8.27
2019-03-27T22:47:40.438Z,8.07
2019-03-27T22:50:10.720Z,8.70
2019-03-27T22:52:42.261Z,9.23
2019-03-27T22:55:14.395Z,9.37
2019-03-27T22:57:46.386Z,8.40
2019-03-27T23:00:19.781Z,8.13
2019-03-27T23:02:51.432Z,8.57
2019-03-27T23:05:21.723Z,9.33
2019-03-27T23:07:51.935Z,9.27
2019-03-27T23:10:23.214Z,7.47
2019-03-27T23:12:53.456Z,8.73
2019-03-27T23:15:23.801Z,8.47
2019-03-27T23:17:54.004Z,7.53
2019-03-27T23:20:25.304Z,8.67
2019-03-27T23:22:55.560Z,8.10
2019-03-27T23:25:25.778Z,8.07
2019-03-27T23:27:58.018Z,8.43
2019-03-27T23:30:27.846Z,7.90
2019-03-27T23:32:57.990Z,8.30
2019-03-27T23:35:28.159Z,7.80
2019-03-27T23:37:58.307Z,8.60
2019-03-27T23:40:32.951Z,7.73
2019-03-27T23:43:03.213Z,7.03
2019-03-27T23:45:33.411Z,8.50
2019-03-27T23:48:05.768Z,7.87
2019-03-27T23:50:37.699Z,8.00
2019-03-27T23:53:08.021Z,8.33
2019-03-27T23:55:41.991Z,7.50
2019-03-27T23:58:14.593Z,6.80
